Time;durP1;ratioP1;P1;durP2;ratioP2;P2;SDS_P1;SDS_P2;PMS_P1;PMS_P2;Temp;Humidity;BMP_temperature;BMP_pressure;BME280_temperature;BME280_humidity;BME280_pressure;Samples;Min_cycle;Max_cycle;Signal;HPM_P1;HPM_P2
2020/12/02 00:01:25;;;;;;;83.67;46.30;;;;;;;;;;5055096;28;20319;-88
2020/12/02 00:03:56;;;;;;;73.97;45.93;;;;;;;;;;5054466;28;20206;-88
2020/12/02 00:06:26;;;;;;;82.47;47.27;;;;;;;;;;5054251;28;20182;-88
2020/12/02 00:09:04;;;;;;;78.27;45.93;;;;;;;;;;5055278;28;20188;-88
2020/12/02 00:11:33;;;;;;;76.97;46.53;;;;;;;;;;5054668;28;20175;-88
2020/12/02 00:14:08;;;;;;;76.07;46.53;;;;;;;;;;5055208;28;20201;-88
2020/12/02 00:16:37;;;;;;;84.07;47.37;;;;;;;;;;5053956;28;20625;-88
2020/12/02 00:19:06;;;;;;;76.67;47.87;;;;;;;;;;5055188;28;20246;-88
2020/12/02 00:21:38;;;;;;;79.50;46.93;;;;;;;;;;5055067;28;20242;-88
2020/12/02 00:24:09;;;;;;;78.87;47.30;;;;;;;;;;5055043;28;20234;-89
2020/12/02 00:26:39;;;;;;;76.47;46.67;;;;;;;;;;5055073;28;20210;-88
2020/12/02 00:29:11;;;;;;;75.27;47.57;;;;;;;;;;5053774;28;20679;-88
2020/12/02 00:31:41;;;;;;;80.60;49.03;;;;;;;;;;5054953;28;20182;-88
2020/12/02 00:34:12;;;;;;;81.73;49.33;;;;;;;;;;5053680;28;20187;-88
2020/12/02 00:36:39;;;;;;;79.67;46.97;;;;;;;;;;5053686;28;20187;-88
2020/12/02 00:39:09;;;;;;;78.43;48.10;;;;;;;;;;5053946;28;20630;-88
2020/12/02 00:41:41;;;;;;;82.80;47.53;;;;;;;;;;5054032;28;20214;-88
2020/12/02 00:44:11;;;;;;;80.93;46.37;;;;;;;;;;5053800;28;20555;-88
2020/12/02 00:46:42;;;;;;;71.07;45.97;;;;;;;;;;5053732;28;20193;-88
2020/12/02 00:49:15;;;;;;;74.73;47.47;;;;;;;;;;5053295;28;20698;-88
2020/12/02 00:51:48;;;;;;;75.60;47.23;;;;;;;;;;5053412;28;20179;-88
2020/12/02 00:54:20;;;;;;;76.03;48.40;;;;;;;;;;5054554;28;20526;-89
2020/12/02 00:56:55;;;;;;;80.23;48.10;;;;;;;;;;5055144;28;20583;-89
2020/12/02 00:59:29;;;;;;;72.27;47.67;;;;;;;;;;5054093;28;20194;-89
2020/12/02 01:02:14;;;;;;;76.10;45.87;;;;;;;;;;5053054;28;20180;-89
2020/12/02 01:04:43;;;;;;;75.83;45.90;;;;;;;;;;5053749;28;20230;-88
2020/12/02 01:07:13;;;;;;;78.37;46.87;;;;;;;;;;5052928;28;20179;-88
2020/12/02 01:09:43;;;;;;;69.17;47.67;;;;;;;;;;5053746;28;20179;-88
2020/12/02 01:12:16;;;;;;;78.27;47.77;;;;;;;;;;5052907;28;20550;-89
2020/12/02 01:14:48;;;;;;;75.30;48.20;;;;;;;;;;5053455;28;20181;-88
2020/12/02 01:17:15;;;;;;;71.20;45.13;;;;;;;;;;5052815;28;20263;-89
2020/12/02 01:19:45;;;;;;;80.97;48.17;;;;;;;;;;5052869;28;20184;-89
2020/12/02 01:22:20;;;;;;;78.33;48.00;;;;;;;;;;5052611;28;20194;-88
2020/12/02 01:24:51;;;;;;;78.93;49.37;;;;;;;;;;5053823;28;20664;-88
2020/12/02 01:27:30;;;;;;;80.27;48.70;;;;;;;;;;5052503;28;20226;-89
2020/12/02 01:30:00;;;;;;;75.83;45.90;;;;;;;;;;5054151;28;20546;-88
2020/12/02 01:32:34;;;;;;;75.07;48.07;;;;;;;;;;5054084;28;20545;-88
2020/12/02 01:35:08;;;;;;;78.27;49.53;;;;;;;;;;5052494;28;20664;-88
2020/12/02 01:37:41;;;;;;;80.70;49.03;;;;;;;;;;5052410;28;20198;-88
2020/12/02 01:40:20;;;;;;;72.57;46.77;;;;;;;;;;5052669;28;20185;-88
2020/12/02 01:42:54;;;;;;;80.57;49.37;;;;;;;;;;5052414;28;20180;-88
2020/12/02 01:45:40;;;;;;;78.53;47.67;;;;;;;;;;5052261;28;20204;-88
2020/12/02 01:48:31;;;;;;;77.90;47.80;;;;;;;;;;5052258;28;20203;-88
2020/12/02 01:51:03;;;;;;;71.87;47.53;;;;;;;;;;5053654;28;20591;-89
2020/12/02 01:53:39;;;;;;;79.20;50.37;;;;;;;;;;5053430;28;20307;-88
2020/12/02 01:56:16;;;;;;;76.23;48.23;;;;;;;;;;5052343;28;20304;-88
2020/12/02 01:59:01;;;;;;;75.47;48.00;;;;;;;;;;5053065;28;20207;-88
2020/12/02 02:01:48;;;;;;;73.60;48.87;;;;;;;;;;5052188;28;20523;-88
2020/12/02 02:04:25;;;;;;;75.70;48.50;;;;;;;;;;5051895;28;20200;-88
2020/12/02 02:07:06;;;;;;;80.53;50.63;;;;;;;;;;5052232;28;20216;-89
2020/12/02 02:09:33;;;;;;;76.60;51.27;;;;;;;;;;5051893;28;20549;-88
2020/12/02 02:12:28;;;;;;;79.50;51.23;;;;;;;;;;5051421;28;20199;-88
2020/12/02 02:15:07;;;;;;;81.60;51.67;;;;;;;;;;5051244;28;20188;-88
2020/12/02 02:17:39;;;;;;;80.27;50.83;;;;;;;;;;5051822;28;20570;-89
2020/12/02 02:20:11;;;;;;;78.93;49.90;;;;;;;;;;5053427;28;20186;-88
2020/12/02 02:22:45;;;;;;;78.60;50.23;;;;;;;;;;5051982;28;20181;-88
2020/12/02 02:25:18;;;;;;;75.87;50.33;;;;;;;;;;5053100;28;20210;-88
2020/12/02 02:27:50;;;;;;;73.73;48.83;;;;;;;;;;5051766;28;20202;-89
2020/12/02 02:30:25;;;;;;;69.97;47.90;;;;;;;;;;5051833;28;20174;-88
2020/12/02 02:32:56;;;;;;;68.83;47.40;;;;;;;;;;5052485;28;20174;-88
2020/12/02 02:35:26;;;;;;;71.50;49.43;;;;;;;;;;5051889;28;20183;-88
2020/12/02 02:37:57;;;;;;;72.63;46.70;;;;;;;;;;5052468;28;20289;-88
2020/12/02 02:40:25;;;;;;;74.23;49.60;;;;;;;;;;5053267;28;20175;-88
2020/12/02 02:43:05;;;;;;;76.23;49.13;;;;;;;;;;5051671;28;20180;-88
2020/12/02 02:45:34;;;;;;;76.03;49.40;;;;;;;;;;5051695;28;20203;-88
2020/12/02 02:48:10;;;;;;;69.53;48.33;;;;;;;;;;5051519;28;20198;-88
2020/12/02 02:50:40;;;;;;;72.30;47.63;;;;;;;;;;5053141;28;20549;-88
2020/12/02 02:53:17;;;;;;;82.97;50.67;;;;;;;;;;5052824;28;20201;-88
2020/12/02 02:55:50;;;;;;;74.67;49.90;;;;;;;;;;5051590;28;20660;-88
2020/12/02 02:58:16;;;;;;;77.57;50.13;;;;;;;;;;5052842;28;20295;-88
2020/12/02 03:00:46;;;;;;;71.13;49.00;;;;;;;;;;5051488;28;20187;-88
2020/12/02 03:03:18;;;;;;;74.07;48.90;;;;;;;;;;5051751;28;20188;-88
2020/12/02 03:05:51;;;;;;;73.77;49.43;;;;;;;;;;5051287;28;20198;-88
2020/12/02 03:08:24;;;;;;;76.93;48.57;;;;;;;;;;5051332;28;20194;-88
2020/12/02 03:10:57;;;;;;;76.70;49.27;;;;;;;;;;5052946;28;20241;-88
2020/12/02 03:13:33;;;;;;;74.30;49.37;;;;;;;;;;5052659;28;20231;-88
2020/12/02 03:16:06;;;;;;;81.43;48.30;;;;;;;;;;5052692;28;20266;-88
2020/12/02 03:18:40;;;;;;;74.47;47.40;;;;;;;;;;5051412;28;20199;-88
2020/12/02 03:21:13;;;;;;;74.40;47.73;;;;;;;;;;5053080;28;20582;-89
2020/12/02 03:23:45;;;;;;;81.27;49.23;;;;;;;;;;5054366;28;20182;-88
2020/12/02 03:26:15;;;;;;;76.53;50.33;;;;;;;;;;5054901;28;20175;-88
2020/12/02 03:28:45;;;;;;;73.13;48.13;;;;;;;;;;5054849;28;20197;-88
2020/12/02 03:31:16;;;;;;;72.03;48.00;;;;;;;;;;5055374;28;20187;-88
2020/12/02 03:33:48;;;;;;;79.63;47.33;;;;;;;;;;5054987;28;20175;-88
2020/12/02 03:36:15;;;;;;;72.13;47.50;;;;;;;;;;5056125;28;20175;-88
2020/12/02 03:38:48;;;;;;;74.60;48.30;;;;;;;;;;5054631;28;20702;-88
2020/12/02 03:41:19;;;;;;;75.10;47.97;;;;;;;;;;5054705;28;20180;-88
2020/12/02 03:43:51;;;;;;;73.43;46.73;;;;;;;;;;5054579;28;20187;-88
2020/12/02 03:46:25;;;;;;;77.10;48.40;;;;;;;;;;5056132;28;20254;-88
2020/12/02 03:48:57;;;;;;;83.40;50.63;;;;;;;;;;5054496;28;20203;-88
2020/12/02 03:51:26;;;;;;;78.77;50.37;;;;;;;;;;5055838;28;20179;-88
2020/12/02 03:53:58;;;;;;;82.27;51.60;;;;;;;;;;5054471;28;20178;-88
2020/12/02 03:56:29;;;;;;;81.93;51.70;;;;;;;;;;5054946;28;20646;-88
2020/12/02 03:59:01;;;;;;;80.47;50.50;;;;;;;;;;5054446;28;20221;-89
2020/12/02 04:01:35;;;;;;;77.43;50.17;;;;;;;;;;5054270;28;20264;-88
2020/12/02 04:04:01;;;;;;;80.60;49.53;;;;;;;;;;5056169;28;20195;-88
2020/12/02 04:06:35;;;;;;;77.97;49.93;;;;;;;;;;5055870;28;20180;-88
2020/12/02 04:09:09;;;;;;;77.27;51.03;;;;;;;;;;5054092;28;20196;-88
2020/12/02 04:11:40;;;;;;;74.17;48.37;;;;;;;;;;5054140;28;20195;-88
2020/12/02 04:14:06;;;;;;;76.17;49.30;;;;;;;;;;5055310;28;20186;-88
2020/12/02 04:16:39;;;;;;;75.63;49.43;;;;;;;;;;5054828;28;20180;-88
2020/12/02 04:19:13;;;;;;;81.07;50.57;;;;;;;;;;5053941;28;20199;-88
2020/12/02 04:21:45;;;;;;;74.90;47.90;;;;;;;;;;5054115;28;20176;-88
2020/12/02 04:24:13;;;;;;;76.10;48.43;;;;;;;;;;5053872;28;20206;-88
2020/12/02 04:26:40;;;;;;;73.83;49.87;;;;;;;;;;5055022;28;20198;-88
2020/12/02 04:29:11;;;;;;;77.30;49.13;;;;;;;;;;5055023;28;20195;-88
2020/12/02 04:31:44;;;;;;;76.37;49.30;;;;;;;;;;5054978;28;20187;-88
2020/12/02 04:34:15;;;;;;;71.43;50.30;;;;;;;;;;5053900;28;20204;-88
2020/12/02 04:36:49;;;;;;;78.50;50.10;;;;;;;;;;5054418;28;20560;-88
2020/12/02 04:39:21;;;;;;;70.10;48.37;;;;;;;;;;5054759;28;20230;-88
2020/12/02 04:41:53;;;;;;;74.90;50.40;;;;;;;;;;5053566;28;20178;-88
2020/12/02 04:44:24;;;;;;;75.50;48.90;;;;;;;;;;5053508;28;20202;-88
2020/12/02 04:46:58;;;;;;;73.93;47.30;;;;;;;;;;5053471;28;20174;-88
2020/12/02 04:49:32;;;;;;;74.23;49.17;;;;;;;;;;5053413;28;20708;-88
2020/12/02 04:52:06;;;;;;;71.83;48.20;;;;;;;;;;5054693;28;20537;-88
2020/12/02 04:54:38;;;;;;;69.57;47.30;;;;;;;;;;5054830;28;20178;-88
2020/12/02 04:57:07;;;;;;;76.60;48.47;;;;;;;;;;5052995;28;20184;-88
2020/12/02 04:59:41;;;;;;;76.70;48.50;;;;;;;;;;5054504;28;20175;-88
2020/12/02 05:02:30;;;;;;;72.83;47.60;;;;;;;;;;5053176;28;20188;-88
2020/12/02 05:05:03;;;;;;;70.33;48.20;;;;;;;;;;5054659;28;20192;-88
2020/12/02 05:07:30;;;;;;;70.43;48.07;;;;;;;;;;5054478;28;20188;-88
2020/12/02 05:10:01;;;;;;;68.87;48.90;;;;;;;;;;5053056;28;20647;-88
2020/12/02 05:12:34;;;;;;;70.73;47.53;;;;;;;;;;5052970;28;20574;-88
2020/12/02 05:15:18;;;;;;;71.20;48.40;;;;;;;;;;5054172;28;20172;-88
2020/12/02 05:18:05;;;;;;;66.47;46.73;;;;;;;;;;5052877;28;20208;-88
2020/12/02 05:20:34;;;;;;;69.97;48.27;;;;;;;;;;5054352;28;20171;-88
2020/12/02 05:23:20;;;;;;;70.33;47.07;;;;;;;;;;5053059;28;20632;-88
2020/12/02 05:25:51;;;;;;;71.40;49.03;;;;;;;;;;5053510;28;20218;-88
2020/12/02 05:28:30;;;;;;;72.73;48.27;;;;;;;;;;5054030;28;20199;-88
2020/12/02 05:31:14;;;;;;;72.00;46.37;;;;;;;;;;5052709;28;20285;-88
2020/12/02 05:33:45;;;;;;;68.10;49.00;;;;;;;;;;5054165;28;20165;-88
2020/12/02 05:36:21;;;;;;;76.40;47.83;;;;;;;;;;5052499;28;20676;-88
2020/12/02 05:39:03;;;;;;;74.93;46.77;;;;;;;;;;5053640;28;20194;-88
2020/12/02 05:41:32;;;;;;;66.17;46.77;;;;;;;;;;5053742;28;20217;-88
2020/12/02 05:44:05;;;;;;;78.07;47.83;;;;;;;;;;5052332;28;20210;-88
2020/12/02 05:46:37;;;;;;;69.53;46.63;;;;;;;;;;5053247;28;20605;-88
2020/12/02 05:49:11;;;;;;;66.63;47.60;;;;;;;;;;5052435;28;20664;-88
2020/12/02 05:51:41;;;;;;;64.57;46.77;;;;;;;;;;5052375;28;20178;-88
2020/12/02 05:54:18;;;;;;;66.17;48.43;;;;;;;;;;5053539;28;20193;-88
2020/12/02 05:56:51;;;;;;;67.30;47.53;;;;;;;;;;5053709;28;20179;-88
2020/12/02 05:59:23;;;;;;;69.20;49.47;;;;;;;;;;5051967;28;20264;-88
2020/12/02 06:01:55;;;;;;;68.10;47.93;;;;;;;;;;5052113;28;20186;-88
2020/12/02 06:04:23;;;;;;;64.77;47.57;;;;;;;;;;5053219;28;20275;-88
2020/12/02 06:07:01;;;;;;;66.70;47.93;;;;;;;;;;5053286;28;20250;-88
2020/12/02 06:09:39;;;;;;;62.87;45.70;;;;;;;;;;5052148;28;20217;-88
2020/12/02 06:12:17;;;;;;;67.97;46.67;;;;;;;;;;5052018;28;20224;-88
2020/12/02 06:14:50;;;;;;;68.87;47.97;;;;;;;;;;5051951;28;20626;-88
2020/12/02 06:17:32;;;;;;;66.20;47.77;;;;;;;;;;5053121;28;20210;-88
2020/12/02 06:19:59;;;;;;;70.10;48.07;;;;;;;;;;5051827;28;20206;-88
2020/12/02 06:22:56;;;;;;;70.30;49.60;;;;;;;;;;5051928;28;20609;-88
2020/12/02 06:25:54;;;;;;;66.67;48.10;;;;;;;;;;5047361;28;20215;-88
2020/12/02 06:28:26;;;;;;;67.57;46.33;;;;;;;;;;5040365;28;20209;-88
2020/12/02 06:31:00;;;;;;;69.33;48.03;;;;;;;;;;5052692;28;20174;-88
2020/12/02 06:33:36;;;;;;;66.43;47.93;;;;;;;;;;5051819;28;20183;-88
2020/12/02 06:36:24;;;;;;;65.70;46.70;;;;;;;;;;5052405;28;20187;-88
2020/12/02 06:39:14;;;;;;;69.03;47.30;;;;;;;;;;5053029;28;20269;-88
2020/12/02 06:41:47;;;;;;;67.10;46.60;;;;;;;;;;5042198;28;20215;-88
2020/12/02 06:44:17;;;;;;;62.67;45.43;;;;;;;;;;5051592;28;20204;-88
2020/12/02 06:46:55;;;;;;;67.20;44.90;;;;;;;;;;5053141;28;20547;-88
2020/12/02 06:49:29;;;;;;;65.13;47.73;;;;;;;;;;5051699;28;20171;-88
2020/12/02 06:52:04;;;;;;;64.83;47.23;;;;;;;;;;5051577;28;20230;-89
2020/12/02 06:54:36;;;;;;;63.37;47.17;;;;;;;;;;5053149;28;20160;-89
2020/12/02 06:57:24;;;;;;;62.23;46.00;;;;;;;;;;5053482;28;20556;-88
2020/12/02 06:59:55;;;;;;;72.97;48.83;;;;;;;;;;5055975;28;20195;-88
2020/12/02 07:02:37;;;;;;;66.53;48.10;;;;;;;;;;5055478;28;20636;-89
2020/12/02 07:05:09;;;;;;;66.50;47.67;;;;;;;;;;5056784;28;20570;-88
2020/12/02 07:07:38;;;;;;;63.90;46.93;;;;;;;;;;5056637;28;20194;-88
2020/12/02 07:10:17;;;;;;;67.27;47.83;;;;;;;;;;5056533;28;20257;-88
2020/12/02 07:12:48;;;;;;;63.27;46.97;;;;;;;;;;5055263;28;20586;-88
2020/12/02 07:15:20;;;;;;;71.50;47.93;;;;;;;;;;5055177;28;20220;-88
2020/12/02 07:17:52;;;;;;;67.87;47.80;;;;;;;;;;5056178;28;20204;-88
2020/12/02 07:20:23;;;;;;;69.93;47.97;;;;;;;;;;5055285;28;20168;-88
2020/12/02 07:22:56;;;;;;;69.10;48.83;;;;;;;;;;5056469;28;20176;-88
2020/12/02 07:25:26;;;;;;;68.87;49.70;;;;;;;;;;5055170;28;20208;-88
2020/12/02 07:27:57;;;;;;;75.33;50.20;;;;;;;;;;5054863;28;20695;-88
2020/12/02 07:30:40;;;;;;;68.17;49.00;;;;;;;;;;5056071;28;20178;-88
2020/12/02 07:33:19;;;;;;;72.27;49.20;;;;;;;;;;5056355;28;20261;-88
2020/12/02 07:35:48;;;;;;;62.23;45.90;;;;;;;;;;5055107;28;20183;-88
2020/12/02 07:38:19;;;;;;;66.13;45.70;;;;;;;;;;5056261;28;20226;-88
2020/12/02 07:40:50;;;;;;;72.43;46.27;;;;;;;;;;5054745;28;20206;-87
2020/12/02 07:43:31;;;;;;;61.83;45.40;;;;;;;;;;5055898;28;20190;-88
2020/12/02 07:46:05;;;;;;;63.87;46.63;;;;;;;;;;5055090;28;20609;-88
2020/12/02 07:48:40;;;;;;;69.23;47.37;;;;;;;;;;5054631;28;20192;-88
2020/12/02 07:51:14;;;;;;;69.60;47.63;;;;;;;;;;5054891;28;20180;-89
2020/12/02 07:53:56;;;;;;;68.53;46.87;;;;;;;;;;5055808;28;20171;-88
2020/12/02 07:56:40;;;;;;;65.70;45.23;;;;;;;;;;5056133;28;20172;-88
2020/12/02 07:59:18;;;;;;;64.57;45.87;;;;;;;;;;5056267;28;20605;-88
2020/12/02 08:02:01;;;;;;;65.50;46.27;;;;;;;;;;5056425;28;20167;-88
2020/12/02 08:04:29;;;;;;;65.83;46.70;;;;;;;;;;5055012;28;20202;-88
2020/12/02 08:07:12;;;;;;;60.67;45.57;;;;;;;;;;5054938;28;20662;-88
2020/12/02 08:09:50;;;;;;;58.97;44.93;;;;;;;;;;5055567;28;20194;-88
2020/12/02 08:12:27;;;;;;;65.67;44.27;;;;;;;;;;5055714;28;20179;-88
2020/12/02 08:15:07;;;;;;;61.03;42.47;;;;;;;;;;5056256;28;20207;-88
2020/12/02 08:17:39;;;;;;;60.33;43.73;;;;;;;;;;5054660;28;20619;-88
2020/12/02 08:20:27;;;;;;;65.20;45.93;;;;;;;;;;5055970;28;20170;-88
2020/12/02 08:23:00;;;;;;;65.50;45.13;;;;;;;;;;5055614;28;20176;-88
2020/12/02 08:25:30;;;;;;;62.97;45.47;;;;;;;;;;5054718;28;20663;-88
2020/12/02 08:28:10;;;;;;;59.33;44.00;;;;;;;;;;5054084;28;20196;-88
2020/12/02 08:30:41;;;;;;;59.87;44.60;;;;;;;;;;5055340;28;20198;-88
2020/12/02 08:33:15;;;;;;;64.67;45.63;;;;;;;;;;5053787;28;20528;-88
2020/12/02 08:35:41;;;;;;;57.77;44.60;;;;;;;;;;5053670;28;20178;-88
2020/12/02 08:38:20;;;;;;;57.77;43.17;;;;;;;;;;5053615;28;20574;-88
2020/12/02 08:40:55;;;;;;;58.90;42.93;;;;;;;;;;5053529;28;20176;-88
2020/12/02 08:43:31;;;;;;;63.27;42.70;;;;;;;;;;5053598;28;20182;-88
2020/12/02 08:46:04;;;;;;;68.37;45.83;;;;;;;;;;5053771;28;20282;-89
2020/12/02 08:48:38;;;;;;;61.67;44.07;;;;;;;;;;5053412;28;20215;-87
2020/12/02 08:51:15;;;;;;;55.90;43.03;;;;;;;;;;5054853;28;20177;-88
2020/12/02 08:53:50;;;;;;;63.03;43.00;;;;;;;;;;5053431;28;20175;-87
2020/12/02 08:56:26;;;;;;;57.93;41.67;;;;;;;;;;5054412;28;20180;-87
2020/12/02 08:58:55;;;;;;;56.17;40.53;;;;;;;;;;5055250;28;20679;-87
2020/12/02 09:01:28;;;;;;;59.47;43.27;;;;;;;;;;5054376;28;20176;-88
2020/12/02 09:03:57;;;;;;;54.17;41.27;;;;;;;;;;5054093;28;20183;-88
2020/12/02 09:06:31;;;;;;;57.20;42.00;;;;;;;;;;5054549;28;20172;-87
2020/12/02 09:09:01;;;;;;;58.13;44.67;;;;;;;;;;5053721;28;20199;-87
2020/12/02 09:11:31;;;;;;;56.40;42.50;;;;;;;;;;5056126;28;20317;-85
2020/12/02 09:13:58;;;;;;;52.43;39.30;;;;;;;;;;5057156;28;20648;-85
2020/12/02 09:16:35;;;;;;;58.93;39.87;;;;;;;;;;5058000;28;20187;-87
2020/12/02 09:19:01;;;;;;;54.80;40.83;;;;;;;;;;5053421;28;20200;-87
2020/12/02 09:21:35;;;;;;;58.87;41.23;;;;;;;;;;5055244;28;20169;-88
2020/12/02 09:24:05;;;;;;;50.43;38.87;;;;;;;;;;5053874;28;20220;-88
2020/12/02 09:26:39;;;;;;;56.43;41.33;;;;;;;;;;5053513;28;20182;-87
2020/12/02 09:29:10;;;;;;;54.27;39.33;;;;;;;;;;5053785;28;20195;-87
2020/12/02 09:31:36;;;;;;;49.07;37.20;;;;;;;;;;5055649;28;20172;-87
2020/12/02 09:34:06;;;;;;;49.07;38.27;;;;;;;;;;5055758;28;20188;-87
2020/12/02 09:36:36;;;;;;;52.93;37.93;;;;;;;;;;5053395;28;20184;-87
2020/12/02 09:39:10;;;;;;;50.63;40.93;;;;;;;;;;5053680;28;20188;-87
2020/12/02 09:41:47;;;;;;;50.27;37.07;;;;;;;;;;5052446;28;20229;-87
2020/12/02 09:44:34;;;;;;;53.13;41.27;;;;;;;;;;5052435;28;20687;-87
2020/12/02 09:47:11;;;;;;;52.83;40.83;;;;;;;;;;5053839;28;20596;-87
2020/12/02 09:49:45;;;;;;;50.07;38.70;;;;;;;;;;5052327;28;20175;-87
2020/12/02 09:52:15;;;;;;;51.33;38.73;;;;;;;;;;5053358;28;20632;-87
2020/12/02 09:54:48;;;;;;;51.07;38.57;;;;;;;;;;5052822;28;20175;-87
2020/12/02 09:57:23;;;;;;;52.20;38.93;;;;;;;;;;5051964;28;20191;-87
2020/12/02 09:59:55;;;;;;;50.20;37.73;;;;;;;;;;5062944;22;20227;-85
2020/12/02 10:02:39;;;;;;;48.73;37.53;;;;;;;;;;5033548;28;20169;-85
2020/12/02 10:05:15;;;;;;;50.40;36.67;;;;;;;;;;5048702;28;20204;-84
2020/12/02 10:07:55;;;;;;;47.23;37.67;;;;;;;;;;5033749;28;20164;-85
2020/12/02 10:10:40;;;;;;;49.33;36.73;;;;;;;;;;5033802;28;20279;-85
2020/12/02 10:13:28;;;;;;;48.00;35.83;;;;;;;;;;5033288;28;20168;-85
2020/12/02 10:16:01;;;;;;;52.07;34.80;;;;;;;;;;5033478;28;20569;-84
2020/12/02 10:18:36;;;;;;;44.37;33.40;;;;;;;;;;5031758;28;20717;-85
2020/12/02 10:21:24;;;;;;;48.37;34.87;;;;;;;;;;5033396;28;20154;-85
2020/12/02 10:24:05;;;;;;;43.07;33.30;;;;;;;;;;5031770;28;20172;-84
2020/12/02 10:26:47;;;;;;;43.80;32.30;;;;;;;;;;5033695;28;20176;-85
2020/12/02 10:29:35;;;;;;;46.63;33.80;;;;;;;;;;5031896;28;20197;-84
2020/12/02 10:32:18;;;;;;;39.37;29.90;;;;;;;;;;5033648;28;20230;-84
2020/12/02 10:34:45;;;;;;;41.50;31.03;;;;;;;;;;5037457;28;20157;-85
2020/12/02 10:37:26;;;;;;;39.50;30.97;;;;;;;;;;5037449;28;20180;-84
2020/12/02 10:39:56;;;;;;;42.17;32.30;;;;;;;;;;5037013;28;20686;-85
2020/12/02 10:42:36;;;;;;;41.93;31.53;;;;;;;;;;5035683;28;20657;-85
2020/12/02 10:45:11;;;;;;;40.63;31.50;;;;;;;;;;5035683;28;20196;-84
2020/12/02 10:47:49;;;;;;;43.00;33.23;;;;;;;;;;5036968;28;20180;-85
2020/12/02 10:50:20;;;;;;;45.80;31.27;;;;;;;;;;5035496;28;20192;-85
2020/12/02 10:52:52;;;;;;;42.37;31.97;;;;;;;;;;5036907;28;20247;-84
2020/12/02 10:55:19;;;;;;;53.03;35.27;;;;;;;;;;5035465;28;20264;-85
2020/12/02 10:58:03;;;;;;;46.33;35.70;;;;;;;;;;5036761;28;20187;-85
2020/12/02 11:00:36;;;;;;;44.30;33.97;;;;;;;;;;5035447;28;20661;-85
2020/12/02 11:03:31;;;;;;;47.07;34.27;;;;;;;;;;5036716;28;20239;-85
2020/12/02 11:06:08;;;;;;;41.87;33.10;;;;;;;;;;5035815;28;20209;-85
2020/12/02 11:08:44;;;;;;;47.87;32.17;;;;;;;;;;5035194;28;20189;-85
2020/12/02 11:11:25;;;;;;;38.53;31.47;;;;;;;;;;5035180;28;20181;-85
2020/12/02 11:14:01;;;;;;;42.83;33.83;;;;;;;;;;5035174;28;20260;-85
2020/12/02 11:16:41;;;;;;;42.13;32.20;;;;;;;;;;5036681;28;20259;-85
2020/12/02 11:19:20;;;;;;;45.00;33.87;;;;;;;;;;5036208;28;20189;-85
2020/12/02 11:22:05;;;;;;;46.30;33.23;;;;;;;;;;5034950;28;20197;-85
2020/12/02 11:24:44;;;;;;;44.43;33.27;;;;;;;;;;5034889;28;20196;-85
2020/12/02 11:27:15;;;;;;;42.57;33.60;;;;;;;;;;5034865;28;20177;-85
2020/12/02 11:29:51;;;;;;;41.60;32.13;;;;;;;;;;5036045;28;20669;-85
2020/12/02 11:32:35;;;;;;;41.43;32.33;;;;;;;;;;5034885;28;20539;-85
2020/12/02 11:35:09;;;;;;;45.73;32.10;;;;;;;;;;5036574;28;20256;-85
2020/12/02 11:37:57;;;;;;;41.70;32.67;;;;;;;;;;5034635;28;20666;-85
2020/12/02 11:40:33;;;;;;;42.00;32.93;;;;;;;;;;5034562;28;20184;-85
2020/12/02 11:43:11;;;;;;;44.23;34.57;;;;;;;;;;5034435;28;20244;-85
2020/12/02 11:45:41;;;;;;;46.10;33.77;;;;;;;;;;5035139;28;20193;-85
2020/12/02 11:48:31;;;;;;;56.07;34.23;;;;;;;;;;5035667;28;20181;-85
2020/12/02 11:51:08;;;;;;;47.30;34.83;;;;;;;;;;5034576;28;20169;-85
2020/12/02 11:53:56;;;;;;;42.73;33.23;;;;;;;;;;5034319;28;20176;-85
2020/12/02 11:56:36;;;;;;;42.03;33.03;;;;;;;;;;5035559;28;20638;-85
2020/12/02 11:59:14;;;;;;;42.00;34.17;;;;;;;;;;5035476;28;20220;-85
2020/12/02 12:01:57;;;;;;;47.17;37.40;;;;;;;;;;5034304;28;20185;-86
2020/12/02 12:04:27;;;;;;;48.07;36.87;;;;;;;;;;5035429;28;20279;-86
2020/12/02 12:06:59;;;;;;;47.23;32.83;;;;;;;;;;5035422;28;20173;-86
2020/12/02 12:09:43;;;;;;;46.23;32.90;;;;;;;;;;5034185;28;20188;-86
2020/12/02 12:12:28;;;;;;;46.70;35.40;;;;;;;;;;5034921;28;20180;-86
2020/12/02 12:15:05;;;;;;;47.27;34.83;;;;;;;;;;5034488;28;20176;-86
2020/12/02 12:17:41;;;;;;;50.77;35.13;;;;;;;;;;5034490;28;20173;-86
2020/12/02 12:20:34;;;;;;;45.90;33.40;;;;;;;;;;5034452;28;20192;-86
2020/12/02 12:23:21;;;;;;;43.90;33.23;;;;;;;;;;5035355;28;20172;-86
2020/12/02 12:25:53;;;;;;;48.67;36.30;;;;;;;;;;5035025;28;20281;-86
2020/12/02 12:28:28;;;;;;;51.90;34.53;;;;;;;;;;5033829;28;20212;-86
2020/12/02 12:31:09;;;;;;;45.03;34.73;;;;;;;;;;5035371;28;20177;-86
2020/12/02 12:33:45;;;;;;;43.20;33.20;;;;;;;;;;5035249;28;20170;-86
2020/12/02 12:36:20;;;;;;;45.43;30.83;;;;;;;;;;5034804;28;20180;-86
2020/12/02 12:38:55;;;;;;;43.77;30.87;;;;;;;;;;5035102;28;20219;-86
2020/12/02 12:41:40;;;;;;;42.07;31.77;;;;;;;;;;5033511;28;20177;-86
2020/12/02 12:44:10;;;;;;;47.53;33.40;;;;;;;;;;5033483;28;20197;-86
2020/12/02 12:46:48;;;;;;;46.40;35.43;;;;;;;;;;5033382;28;20170;-86
2020/12/02 12:49:20;;;;;;;47.40;34.27;;;;;;;;;;5034661;28;20205;-86
2020/12/02 12:51:51;;;;;;;44.83;34.30;;;;;;;;;;5034619;28;20170;-87
2020/12/02 12:54:25;;;;;;;48.27;34.60;;;;;;;;;;5034531;28;20261;-86
2020/12/02 12:56:56;;;;;;;45.97;34.20;;;;;;;;;;5032991;28;20173;-86
2020/12/02 12:59:28;;;;;;;50.77;33.90;;;;;;;;;;5034193;28;20686;-86
2020/12/02 13:02:00;;;;;;;47.93;33.47;;;;;;;;;;5034371;28;20178;-86
2020/12/02 13:04:32;;;;;;;49.40;32.97;;;;;;;;;;5033079;28;20221;-86
2020/12/02 13:07:21;;;;;;;44.87;33.43;;;;;;;;;;5034282;28;20207;-87
2020/12/02 13:10:09;;;;;;;44.93;34.23;;;;;;;;;;5034160;28;20189;-86
2020/12/02 13:12:47;;;;;;;49.13;34.67;;;;;;;;;;5033251;28;20496;-86
2020/12/02 13:15:23;;;;;;;42.40;31.77;;;;;;;;;;5034114;28;20643;-86
2020/12/02 13:17:51;;;;;;;44.90;32.37;;;;;;;;;;5033093;28;20175;-86
2020/12/02 13:20:24;;;;;;;48.23;34.63;;;;;;;;;;5033304;28;20286;-86
2020/12/02 13:23:04;;;;;;;45.77;32.33;;;;;;;;;;5034767;28;20190;-86
2020/12/02 13:25:35;;;;;;;44.43;34.50;;;;;;;;;;5034649;28;20197;-86
2020/12/02 13:28:14;;;;;;;47.73;34.37;;;;;;;;;;5033935;28;20269;-86
2020/12/02 13:30:50;;;;;;;48.17;37.30;;;;;;;;;;5033351;28;20175;-86
2020/12/02 13:33:22;;;;;;;47.27;35.63;;;;;;;;;;5033255;28;20645;-86
2020/12/02 13:35:48;;;;;;;48.77;38.33;;;;;;;;;;5033319;28;20610;-86
2020/12/02 13:38:21;;;;;;;45.53;35.37;;;;;;;;;;5032715;28;20180;-86
2020/12/02 13:40:57;;;;;;;49.73;37.23;;;;;;;;;;5033400;28;20272;-86
2020/12/02 13:43:28;;;;;;;49.30;35.10;;;;;;;;;;5033887;28;20195;-86
2020/12/02 13:46:01;;;;;;;49.77;36.47;;;;;;;;;;5032581;28;20205;-86
2020/12/02 13:48:35;;;;;;;49.37;36.57;;;;;;;;;;5032195;28;20285;-85
2020/12/02 13:51:12;;;;;;;51.13;38.23;;;;;;;;;;5032374;28;20172;-86
2020/12/02 13:53:47;;;;;;;50.27;38.73;;;;;;;;;;5032355;28;20237;-86
2020/12/02 13:56:40;;;;;;;47.97;38.43;;;;;;;;;;5033018;28;20184;-84
2020/12/02 13:59:28;;;;;;;53.97;39.60;;;;;;;;;;5031973;28;20216;-85
2020/12/02 14:02:21;;;;;;;58.33;40.03;;;;;;;;;;5033571;28;20202;-85
2020/12/02 14:05:08;;;;;;;55.87;39.50;;;;;;;;;;5033488;28;20604;-85
2020/12/02 14:07:41;;;;;;;58.20;37.40;;;;;;;;;;5031237;28;20176;-85
2020/12/02 14:10:14;;;;;;;53.53;39.53;;;;;;;;;;5032734;28;20604;-85
2020/12/02 14:12:45;;;;;;;52.53;39.07;;;;;;;;;;5032550;28;20634;-85
2020/12/02 14:15:18;;;;;;;50.57;38.13;;;;;;;;;;5033271;28;20181;-85
2020/12/02 14:17:49;;;;;;;49.90;37.17;;;;;;;;;;5031920;28;20176;-85
2020/12/02 14:20:19;;;;;;;55.10;40.03;;;;;;;;;;5032591;28;20200;-85
2020/12/02 14:22:45;;;;;;;49.60;37.13;;;;;;;;;;5033143;28;20181;-85
2020/12/02 14:25:13;;;;;;;51.17;38.00;;;;;;;;;;5032907;28;20676;-85
2020/12/02 14:27:42;;;;;;;48.33;38.10;;;;;;;;;;5031994;28;20269;-85
2020/12/02 14:30:25;;;;;;;46.17;37.37;;;;;;;;;;5031767;28;20347;-85
2020/12/02 14:32:51;;;;;;;48.37;36.93;;;;;;;;;;5031727;28;20172;-85
2020/12/02 14:35:19;;;;;;;51.33;38.27;;;;;;;;;;5031876;28;20668;-85
2020/12/02 14:37:47;;;;;;;51.17;36.47;;;;;;;;;;5031708;28;20234;-85
2020/12/02 14:40:13;;;;;;;47.80;38.17;;;;;;;;;;5032998;28;20283;-85
2020/12/02 14:42:39;;;;;;;46.77;37.77;;;;;;;;;;5033263;28;20637;-85
2020/12/02 14:45:07;;;;;;;52.47;40.03;;;;;;;;;;5033660;28;20323;-85
2020/12/02 14:47:33;;;;;;;50.57;38.23;;;;;;;;;;5032624;28;20181;-85
2020/12/02 14:49:59;;;;;;;53.20;38.13;;;;;;;;;;5032356;28;20189;-85
2020/12/02 14:52:25;;;;;;;47.70;37.73;;;;;;;;;;5032790;28;20181;-85
2020/12/02 14:54:52;;;;;;;47.47;36.60;;;;;;;;;;5034381;28;20199;-85
2020/12/02 14:57:18;;;;;;;47.97;37.20;;;;;;;;;;5032935;28;20185;-85
2020/12/02 14:59:50;;;;;;;45.40;34.93;;;;;;;;;;5032327;28;20212;-85